sensor_id;sensor_type;location;lat;lon;timestamp;temperature;humidity
33761;DHT22;20084;47.912;19.044;2022-12-22T00:00:30;3.90;99.90
33761;DHT22;20084;47.912;19.044;2022-12-22T00:03:14;3.90;99.90
33761;DHT22;20084;47.912;19.044;2022-12-22T00:05:58;3.90;99.90
33761;DHT22;20084;47.912;19.044;2022-12-22T00:08:42;3.80;99.90
33761;DHT22;20084;47.912;19.044;2022-12-22T00:11:26;3.70;99.90
33761;DHT22;20084;47.912;19.044;2022-12-22T00:14:11;3.60;99.90
33761;DHT22;20084;47.912;19.044;2022-12-22T00:17:01;3.70;99.90
33761;DHT22;20084;47.912;19.044;2022-12-22T00:19:45;3.80;99.90
33761;DHT22;20084;47.912;19.044;2022-12-22T00:22:29;3.80;99.90
33761;DHT22;20084;47.912;19.044;2022-12-22T00:25:15;3.80;99.90
33761;DHT22;20084;47.912;19.044;2022-12-22T00:28:00;3.90;99.90
33761;DHT22;20084;47.912;19.044;2022-12-22T00:30:45;3.90;99.90
33761;DHT22;20084;47.912;19.044;2022-12-22T00:33:29;3.90;99.90
33761;DHT22;20084;47.912;19.044;2022-12-22T00:36:14;3.80;99.90
33761;DHT22;20084;47.912;19.044;2022-12-22T00:38:58;3.80;99.90
33761;DHT22;20084;47.912;19.044;2022-12-22T00:41:43;3.80;99.90
33761;DHT22;20084;47.912;19.044;2022-12-22T00:44:27;3.80;99.90
33761;DHT22;20084;47.912;19.044;2022-12-22T00:47:26;3.90;99.90
33761;DHT22;20084;47.912;19.044;2022-12-22T00:50:12;3.90;99.90
33761;DHT22;20084;47.912;19.044;2022-12-22T00:52:57;3.90;99.90
33761;DHT22;20084;47.912;19.044;2022-12-22T00:55:42;3.90;99.90
33761;DHT22;20084;47.912;19.044;2022-12-22T00:58:26;3.90;99.90
33761;DHT22;20084;47.912;19.044;2022-12-22T01:01:11;3.90;99.90
33761;DHT22;20084;47.912;19.044;2022-12-22T01:03:55;4.00;99.90
33761;DHT22;20084;47.912;19.044;2022-12-22T01:06:40;4.00;99.90
33761;DHT22;20084;47.912;19.044;2022-12-22T01:09:24;4.00;99.90
33761;DHT22;20084;47.912;19.044;2022-12-22T01:12:21;4.00;99.90
33761;DHT22;20084;47.912;19.044;2022-12-22T01:15:13;4.10;99.90
33761;DHT22;20084;47.912;19.044;2022-12-22T01:17:58;4.10;99.90
33761;DHT22;20084;47.912;19.044;2022-12-22T01:20:42;4.10;99.90
33761;DHT22;20084;47.912;19.044;2022-12-22T01:23:27;4.00;99.90
33761;DHT22;20084;47.912;19.044;2022-12-22T01:26:11;3.90;99.90
33761;DHT22;20084;47.912;19.044;2022-12-22T01:28:56;4.00;99.90
33761;DHT22;20084;47.912;19.044;2022-12-22T01:31:40;4.00;99.90
33761;DHT22;20084;47.912;19.044;2022-12-22T01:34:24;4.00;99.90
33761;DHT22;20084;47.912;19.044;2022-12-22T01:37:08;4.00;99.90
33761;DHT22;20084;47.912;19.044;2022-12-22T01:39:53;4.00;99.90
33761;DHT22;20084;47.912;19.044;2022-12-22T01:42:37;4.00;99.90
33761;DHT22;20084;47.912;19.044;2022-12-22T01:45:31;4.00;99.90
33761;DHT22;20084;47.912;19.044;2022-12-22T01:48:20;4.00;99.90
33761;DHT22;20084;47.912;19.044;2022-12-22T01:51:44;4.00;99.90
33761;DHT22;20084;47.912;19.044;2022-12-22T01:54:22;4.00;99.90
33761;DHT22;20084;47.912;19.044;2022-12-22T01:57:06;4.10;99.90
33761;DHT22;20084;47.912;19.044;2022-12-22T01:59:50;4.00;99.90
33761;DHT22;20084;47.912;19.044;2022-12-22T02:02:34;4.00;99.90
33761;DHT22;20084;47.912;19.044;2022-12-22T02:05:19;4.00;99.90
33761;DHT22;20084;47.912;19.044;2022-12-22T02:08:13;4.10;99.90
33761;DHT22;20084;47.912;19.044;2022-12-22T02:14:38;4.00;99.90
33761;DHT22;20084;47.912;19.044;2022-12-22T02:17:36;4.00;99.90
33761;DHT22;20084;47.912;19.044;2022-12-22T02:20:46;4.00;99.90
33761;DHT22;20084;47.912;19.044;2022-12-22T02:26:32;4.00;99.90
33761;DHT22;20084;47.912;19.044;2022-12-22T02:29:21;4.00;99.90
33761;DHT22;20084;47.912;19.044;2022-12-22T02:32:08;4.00;99.90
33761;DHT22;20084;47.912;19.044;2022-12-22T02:34:52;4.00;99.90
33761;DHT22;20084;47.912;19.044;2022-12-22T02:37:56;4.00;99.90
33761;DHT22;20084;47.912;19.044;2022-12-22T02:41:05;4.10;99.90
33761;DHT22;20084;47.912;19.044;2022-12-22T02:44:24;4.10;99.90
33761;DHT22;20084;47.912;19.044;2022-12-22T02:47:07;4.10;99.90
33761;DHT22;20084;47.912;19.044;2022-12-22T02:49:58;4.10;99.90
33761;DHT22;20084;47.912;19.044;2022-12-22T02:52:44;4.20;99.90
33761;DHT22;20084;47.912;19.044;2022-12-22T02:55:30;4.20;99.90
33761;DHT22;20084;47.912;19.044;2022-12-22T02:58:15;4.20;99.90
33761;DHT22;20084;47.912;19.044;2022-12-22T03:01:01;4.10;99.90
33761;DHT22;20084;47.912;19.044;2022-12-22T03:03:47;4.10;99.90
33761;DHT22;20084;47.912;19.044;2022-12-22T03:06:32;4.10;99.90
33761;DHT22;20084;47.912;19.044;2022-12-22T03:09:16;4.10;99.90
33761;DHT22;20084;47.912;19.044;2022-12-22T03:12:00;4.10;99.90
33761;DHT22;20084;47.912;19.044;2022-12-22T03:14:44;4.10;99.90
33761;DHT22;20084;47.912;19.044;2022-12-22T03:17:28;4.10;99.90
33761;DHT22;20084;47.912;19.044;2022-12-22T03:20:12;4.20;99.90
33761;DHT22;20084;47.912;19.044;2022-12-22T03:23:02;4.30;99.90
33761;DHT22;20084;47.912;19.044;2022-12-22T03:25:47;4.20;99.90
33761;DHT22;20084;47.912;19.044;2022-12-22T03:28:23;4.20;99.90
33761;DHT22;20084;47.912;19.044;2022-12-22T03:30:55;4.20;99.90
33761;DHT22;20084;47.912;19.044;2022-12-22T03:33:21;4.10;99.90
33761;DHT22;20084;47.912;19.044;2022-12-22T03:35:47;4.10;99.90
33761;DHT22;20084;47.912;19.044;2022-12-22T03:38:12;4.20;99.90
33761;DHT22;20084;47.912;19.044;2022-12-22T03:40:38;4.20;99.90
33761;DHT22;20084;47.912;19.044;2022-12-22T03:43:04;4.20;99.90
33761;DHT22;20084;47.912;19.044;2022-12-22T03:45:53;4.20;99.90
33761;DHT22;20084;47.912;19.044;2022-12-22T03:48:37;4.20;99.90
33761;DHT22;20084;47.912;19.044;2022-12-22T03:51:03;4.20;99.90
33761;DHT22;20084;47.912;19.044;2022-12-22T03:53:29;4.20;99.90
33761;DHT22;20084;47.912;19.044;2022-12-22T03:55:54;4.20;99.90
33761;DHT22;20084;47.912;19.044;2022-12-22T03:58:20;4.10;99.90
33761;DHT22;20084;47.912;19.044;2022-12-22T04:00:45;4.00;99.90
33761;DHT22;20084;47.912;19.044;2022-12-22T04:03:11;4.00;99.90
33761;DHT22;20084;47.912;19.044;2022-12-22T04:05:37;4.00;99.90
33761;DHT22;20084;47.912;19.044;2022-12-22T04:08:03;4.00;99.90
33761;DHT22;20084;47.912;19.044;2022-12-22T04:10:28;3.90;99.90
33761;DHT22;20084;47.912;19.044;2022-12-22T04:13:12;3.90;99.90
33761;DHT22;20084;47.912;19.044;2022-12-22T04:15:38;3.90;99.90
33761;DHT22;20084;47.912;19.044;2022-12-22T04:18:04;3.90;99.90
33761;DHT22;20084;47.912;19.044;2022-12-22T04:20:30;3.80;99.90
33761;DHT22;20084;47.912;19.044;2022-12-22T04:22:56;3.70;99.90
33761;DHT22;20084;47.912;19.044;2022-12-22T04:25:23;3.80;99.90
33761;DHT22;20084;47.912;19.044;2022-12-22T04:27:49;3.70;99.90
33761;DHT22;20084;47.912;19.044;2022-12-22T04:30:15;3.80;99.90
33761;DHT22;20084;47.912;19.044;2022-12-22T04:32:41;3.80;99.90
33761;DHT22;20084;47.912;19.044;2022-12-22T04:35:07;3.80;99.90
33761;DHT22;20084;47.912;19.044;2022-12-22T04:37:33;3.80;99.90
33761;DHT22;20084;47.912;19.044;2022-12-22T04:39:59;3.80;99.90
33761;DHT22;20084;47.912;19.044;2022-12-22T04:42:25;3.90;99.90
33761;DHT22;20084;47.912;19.044;2022-12-22T04:44:50;3.80;99.90
33761;DHT22;20084;47.912;19.044;2022-12-22T04:47:16;3.80;99.90
33761;DHT22;20084;47.912;19.044;2022-12-22T04:49:42;3.70;99.90
33761;DHT22;20084;47.912;19.044;2022-12-22T04:52:07;3.70;99.90
33761;DHT22;20084;47.912;19.044;2022-12-22T04:54:33;3.80;99.90
33761;DHT22;20084;47.912;19.044;2022-12-22T04:56:59;3.70;99.90
33761;DHT22;20084;47.912;19.044;2022-12-22T04:59:24;3.80;99.90
33761;DHT22;20084;47.912;19.044;2022-12-22T05:01:50;3.80;99.90
33761;DHT22;20084;47.912;19.044;2022-12-22T05:04:16;3.80;99.90
33761;DHT22;20084;47.912;19.044;2022-12-22T05:06:41;3.90;99.90
33761;DHT22;20084;47.912;19.044;2022-12-22T05:09:08;3.90;99.90
33761;DHT22;20084;47.912;19.044;2022-12-22T05:11:34;3.90;99.90
33761;DHT22;20084;47.912;19.044;2022-12-22T05:13:59;3.90;99.90
33761;DHT22;20084;47.912;19.044;2022-12-22T05:16:25;3.80;99.90
33761;DHT22;20084;47.912;19.044;2022-12-22T05:18:51;3.90;99.90
33761;DHT22;20084;47.912;19.044;2022-12-22T05:21:18;3.90;99.90
33761;DHT22;20084;47.912;19.044;2022-12-22T05:23:45;3.90;99.90
33761;DHT22;20084;47.912;19.044;2022-12-22T05:26:12;3.90;99.90
33761;DHT22;20084;47.912;19.044;2022-12-22T05:28:42;3.90;99.90
33761;DHT22;20084;47.912;19.044;2022-12-22T05:31:10;3.90;99.90
33761;DHT22;20084;47.912;19.044;2022-12-22T05:33:39;3.80;99.90
33761;DHT22;20084;47.912;19.044;2022-12-22T05:36:05;3.80;99.90
33761;DHT22;20084;47.912;19.044;2022-12-22T05:38:30;3.80;99.90
33761;DHT22;20084;47.912;19.044;2022-12-22T05:40:56;3.80;99.90
33761;DHT22;20084;47.912;19.044;2022-12-22T05:43:22;3.80;99.90
33761;DHT22;20084;47.912;19.044;2022-12-22T05:45:47;3.80;99.90
33761;DHT22;20084;47.912;19.044;2022-12-22T05:48:13;3.80;99.90
33761;DHT22;20084;47.912;19.044;2022-12-22T05:50:39;3.80;99.90
33761;DHT22;20084;47.912;19.044;2022-12-22T05:53:06;3.80;99.90
33761;DHT22;20084;47.912;19.044;2022-12-22T05:55:33;3.80;99.90
33761;DHT22;20084;47.912;19.044;2022-12-22T05:57:59;3.80;99.90
33761;DHT22;20084;47.912;19.044;2022-12-22T06:00:29;3.80;99.90
33761;DHT22;20084;47.912;19.044;2022-12-22T06:02:54;3.80;99.90
33761;DHT22;20084;47.912;19.044;2022-12-22T06:05:20;3.80;99.90
33761;DHT22;20084;47.912;19.044;2022-12-22T06:07:46;3.80;99.90
33761;DHT22;20084;47.912;19.044;2022-12-22T06:10:12;3.80;99.90
33761;DHT22;20084;47.912;19.044;2022-12-22T06:12:41;3.80;99.90
33761;DHT22;20084;47.912;19.044;2022-12-22T06:15:09;3.90;99.90
33761;DHT22;20084;47.912;19.044;2022-12-22T06:17:35;3.90;99.90
33761;DHT22;20084;47.912;19.044;2022-12-22T06:20:01;3.90;99.90
33761;DHT22;20084;47.912;19.044;2022-12-22T06:22:27;3.90;99.90
33761;DHT22;20084;47.912;19.044;2022-12-22T06:24:52;3.90;99.90
33761;DHT22;20084;47.912;19.044;2022-12-22T06:27:18;3.90;99.90
33761;DHT22;20084;47.912;19.044;2022-12-22T06:29:44;4.00;99.90
33761;DHT22;20084;47.912;19.044;2022-12-22T06:32:09;4.00;99.90
33761;DHT22;20084;47.912;19.044;2022-12-22T06:34:35;4.00;99.90
33761;DHT22;20084;47.912;19.044;2022-12-22T06:37:00;4.00;99.90
33761;DHT22;20084;47.912;19.044;2022-12-22T06:39:26;4.00;99.90
33761;DHT22;20084;47.912;19.044;2022-12-22T06:41:52;4.00;99.90
33761;DHT22;20084;47.912;19.044;2022-12-22T06:44:36;4.00;99.90
33761;DHT22;20084;47.912;19.044;2022-12-22T06:47:02;4.00;99.90
33761;DHT22;20084;47.912;19.044;2022-12-22T06:49:27;4.00;99.90
33761;DHT22;20084;47.912;19.044;2022-12-22T06:51:53;4.00;99.90
33761;DHT22;20084;47.912;19.044;2022-12-22T06:54:18;4.00;99.90
33761;DHT22;20084;47.912;19.044;2022-12-22T06:56:44;3.90;99.90
33761;DHT22;20084;47.912;19.044;2022-12-22T06:59:10;3.90;99.90
33761;DHT22;20084;47.912;19.044;2022-12-22T07:01:35;3.90;99.90
33761;DHT22;20084;47.912;19.044;2022-12-22T07:04:01;4.00;99.90
33761;DHT22;20084;47.912;19.044;2022-12-22T07:06:27;4.00;99.90
33761;DHT22;20084;47.912;19.044;2022-12-22T07:08:52;3.90;99.90
33761;DHT22;20084;47.912;19.044;2022-12-22T07:11:18;3.90;99.90
33761;DHT22;20084;47.912;19.044;2022-12-22T07:13:44;3.90;99.90
33761;DHT22;20084;47.912;19.044;2022-12-22T07:16:10;3.90;99.90
33761;DHT22;20084;47.912;19.044;2022-12-22T07:18:38;4.00;99.90
33761;DHT22;20084;47.912;19.044;2022-12-22T07:21:07;4.00;99.90
33761;DHT22;20084;47.912;19.044;2022-12-22T07:23:33;4.00;99.90
33761;DHT22;20084;47.912;19.044;2022-12-22T07:26:00;4.00;99.90
33761;DHT22;20084;47.912;19.044;2022-12-22T07:28:26;4.00;99.90
33761;DHT22;20084;47.912;19.044;2022-12-22T07:30:52;4.00;99.90
33761;DHT22;20084;47.912;19.044;2022-12-22T07:33:18;4.00;99.90
33761;DHT22;20084;47.912;19.044;2022-12-22T07:35:44;4.10;99.90
33761;DHT22;20084;47.912;19.044;2022-12-22T07:38:11;4.20;99.90
33761;DHT22;20084;47.912;19.044;2022-12-22T07:40:37;4.30;99.90
33761;DHT22;20084;47.912;19.044;2022-12-22T07:43:02;4.30;99.90
33761;DHT22;20084;47.912;19.044;2022-12-22T07:45:28;4.40;99.90
33761;DHT22;20084;47.912;19.044;2022-12-22T08:16:11;4.50;99.90
33761;DHT22;20084;47.912;19.044;2022-12-22T08:18:37;4.60;99.90
33761;DHT22;20084;47.912;19.044;2022-12-22T08:21:04;4.70;99.90
33761;DHT22;20084;47.912;19.044;2022-12-22T08:23:30;4.70;99.90
33761;DHT22;20084;47.912;19.044;2022-12-22T08:26:28;4.70;99.90
33761;DHT22;20084;47.912;19.044;2022-12-22T08:31:28;4.80;99.90
33761;DHT22;20084;47.912;19.044;2022-12-22T08:33:56;4.70;99.90
33761;DHT22;20084;47.912;19.044;2022-12-22T08:36:23;4.50;99.90
33761;DHT22;20084;47.912;19.044;2022-12-22T08:38:49;4.30;99.90
33761;DHT22;20084;47.912;19.044;2022-12-22T08:41:15;4.30;99.90
33761;DHT22;20084;47.912;19.044;2022-12-22T08:44:01;4.30;99.90
33761;DHT22;20084;47.912;19.044;2022-12-22T08:46:27;4.40;99.90
33761;DHT22;20084;47.912;19.044;2022-12-22T08:48:52;4.50;99.90
33761;DHT22;20084;47.912;19.044;2022-12-22T08:51:18;4.60;99.90
33761;DHT22;20084;47.912;19.044;2022-12-22T08:53:44;4.60;99.90
33761;DHT22;20084;47.912;19.044;2022-12-22T08:56:09;4.70;99.90
33761;DHT22;20084;47.912;19.044;2022-12-22T08:58:35;4.70;99.90
33761;DHT22;20084;47.912;19.044;2022-12-22T09:01:01;4.70;99.90
33761;DHT22;20084;47.912;19.044;2022-12-22T09:03:26;4.80;99.90
33761;DHT22;20084;47.912;19.044;2022-12-22T09:05:59;4.90;99.90
33761;DHT22;20084;47.912;19.044;2022-12-22T09:08:25;5.10;99.90
33761;DHT22;20084;47.912;19.044;2022-12-22T09:10:51;5.10;99.90
33761;DHT22;20084;47.912;19.044;2022-12-22T09:13:16;5.10;99.90
33761;DHT22;20084;47.912;19.044;2022-12-22T09:15:42;5.10;99.90
33761;DHT22;20084;47.912;19.044;2022-12-22T09:18:08;5.10;99.90
33761;DHT22;20084;47.912;19.044;2022-12-22T09:20:33;5.10;99.90
33761;DHT22;20084;47.912;19.044;2022-12-22T09:22:59;5.10;99.90
33761;DHT22;20084;47.912;19.044;2022-12-22T09:25:26;5.10;99.90
33761;DHT22;20084;47.912;19.044;2022-12-22T09:27:51;5.20;99.90
33761;DHT22;20084;47.912;19.044;2022-12-22T09:30:17;5.10;99.90
33761;DHT22;20084;47.912;19.044;2022-12-22T09:32:43;5.00;99.90
33761;DHT22;20084;47.912;19.044;2022-12-22T09:35:08;5.00;99.90
33761;DHT22;20084;47.912;19.044;2022-12-22T09:37:34;5.10;99.90
33761;DHT22;20084;47.912;19.044;2022-12-22T09:40:00;5.20;99.90
33761;DHT22;20084;47.912;19.044;2022-12-22T09:42:26;5.30;99.90
33761;DHT22;20084;47.912;19.044;2022-12-22T09:44:51;5.10;99.90
33761;DHT22;20084;47.912;19.044;2022-12-22T09:47:31;4.90;99.90
33761;DHT22;20084;47.912;19.044;2022-12-22T09:50:00;4.80;99.90
33761;DHT22;20084;47.912;19.044;2022-12-22T09:55:57;4.80;99.90
33761;DHT22;20084;47.912;19.044;2022-12-22T09:57:57;5.00;99.90
33761;DHT22;20084;47.912;19.044;2022-12-22T10:00:24;5.20;99.90
33761;DHT22;20084;47.912;19.044;2022-12-22T10:03:30;5.20;99.90
33761;DHT22;20084;47.912;19.044;2022-12-22T10:08:36;5.20;99.90
33761;DHT22;20084;47.912;19.044;2022-12-22T10:11:03;5.30;99.90
33761;DHT22;20084;47.912;19.044;2022-12-22T10:13:29;5.50;99.90
33761;DHT22;20084;47.912;19.044;2022-12-22T10:15:54;5.50;99.90
33761;DHT22;20084;47.912;19.044;2022-12-22T10:18:28;5.30;99.90
33761;DHT22;20084;47.912;19.044;2022-12-22T10:21:11;5.20;99.90
33761;DHT22;20084;47.912;19.044;2022-12-22T10:23:43;5.20;99.90
33761;DHT22;20084;47.912;19.044;2022-12-22T10:26:12;5.10;99.90
33761;DHT22;20084;47.912;19.044;2022-12-22T10:28:50;5.00;99.90
33761;DHT22;20084;47.912;19.044;2022-12-22T10:31:30;5.00;99.90
33761;DHT22;20084;47.912;19.044;2022-12-22T10:34:09;4.90;99.90
33761;DHT22;20084;47.912;19.044;2022-12-22T10:36:36;5.10;99.90
33761;DHT22;20084;47.912;19.044;2022-12-22T10:39:04;5.30;99.90
33761;DHT22;20084;47.912;19.044;2022-12-22T10:41:35;5.40;99.90
33761;DHT22;20084;47.912;19.044;2022-12-22T10:46:44;5.20;99.90
33761;DHT22;20084;47.912;19.044;2022-12-22T10:51:39;5.30;99.90
33761;DHT22;20084;47.912;19.044;2022-12-22T10:54:07;5.30;99.90
33761;DHT22;20084;47.912;19.044;2022-12-22T10:56:33;5.30;99.90
33761;DHT22;20084;47.912;19.044;2022-12-22T11:01:30;5.60;99.90
33761;DHT22;20084;47.912;19.044;2022-12-22T11:04:11;5.60;99.90
33761;DHT22;20084;47.912;19.044;2022-12-22T11:06:39;5.60;99.90
33761;DHT22;20084;47.912;19.044;2022-12-22T11:09:08;5.60;99.90
33761;DHT22;20084;47.912;19.044;2022-12-22T11:11:38;5.60;99.90
33761;DHT22;20084;47.912;19.044;2022-12-22T11:14:26;5.50;99.90
33761;DHT22;20084;47.912;19.044;2022-12-22T11:17:12;5.60;99.90
33761;DHT22;20084;47.912;19.044;2022-12-22T11:19:46;5.60;99.90
33761;DHT22;20084;47.912;19.044;2022-12-22T11:30:22;5.40;99.90
33761;DHT22;20084;47.912;19.044;2022-12-22T11:38:10;5.20;99.90
33761;DHT22;20084;47.912;19.044;2022-12-22T11:40:43;5.30;99.90
33761;DHT22;20084;47.912;19.044;2022-12-22T11:43:52;5.30;99.90
33761;DHT22;20084;47.912;19.044;2022-12-22T11:46:41;5.30;99.90
33761;DHT22;20084;47.912;19.044;2022-12-22T11:54:55;5.20;99.90
33761;DHT22;20084;47.912;19.044;2022-12-22T11:57:34;5.20;99.90
33761;DHT22;20084;47.912;19.044;2022-12-22T12:07:49;5.20;99.90
33761;DHT22;20084;47.912;19.044;2022-12-22T12:10:30;5.20;99.90
33761;DHT22;20084;47.912;19.044;2022-12-22T12:21:51;5.30;99.90
33761;DHT22;20084;47.912;19.044;2022-12-22T12:32:34;5.30;99.90
33761;DHT22;20084;47.912;19.044;2022-12-22T12:43:52;5.90;99.90
33761;DHT22;20084;47.912;19.044;2022-12-22T12:52:03;5.80;99.90
33761;DHT22;20084;47.912;19.044;2022-12-22T12:57:08;5.40;99.90
33761;DHT22;20084;47.912;19.044;2022-12-22T13:10:28;4.90;99.90
33761;DHT22;20084;47.912;19.044;2022-12-22T13:12:54;4.80;99.90
33761;DHT22;20084;47.912;19.044;2022-12-22T13:15:41;4.80;99.90
33761;DHT22;20084;47.912;19.044;2022-12-22T13:26:12;4.90;99.90
33761;DHT22;20084;47.912;19.044;2022-12-22T13:28:44;4.90;99.90
33761;DHT22;20084;47.912;19.044;2022-12-22T13:31:15;4.90;99.90
33761;DHT22;20084;47.912;19.044;2022-12-22T13:33:43;5.00;99.90
33761;DHT22;20084;47.912;19.044;2022-12-22T13:36:17;5.10;99.90
33761;DHT22;20084;47.912;19.044;2022-12-22T13:38:44;5.10;99.90
33761;DHT22;20084;47.912;19.044;2022-12-22T13:41:18;5.20;99.90
33761;DHT22;20084;47.912;19.044;2022-12-22T13:43:52;5.20;99.90
33761;DHT22;20084;47.912;19.044;2022-12-22T13:46:18;5.20;99.90
33761;DHT22;20084;47.912;19.044;2022-12-22T13:48:46;5.00;99.90
33761;DHT22;20084;47.912;19.044;2022-12-22T13:51:25;4.90;99.90
33761;DHT22;20084;47.912;19.044;2022-12-22T13:53:59;4.90;99.90
33761;DHT22;20084;47.912;19.044;2022-12-22T13:56:34;4.80;99.90
33761;DHT22;20084;47.912;19.044;2022-12-22T13:59:01;4.70;99.90
33761;DHT22;20084;47.912;19.044;2022-12-22T14:01:28;4.70;99.90
33761;DHT22;20084;47.912;19.044;2022-12-22T14:04:02;4.60;99.90
33761;DHT22;20084;47.912;19.044;2022-12-22T14:06:39;4.50;99.90
33761;DHT22;20084;47.912;19.044;2022-12-22T14:09:20;4.50;99.90
33761;DHT22;20084;47.912;19.044;2022-12-22T14:14:23;4.50;99.90
33761;DHT22;20084;47.912;19.044;2022-12-22T14:16:53;4.50;99.90
33761;DHT22;20084;47.912;19.044;2022-12-22T14:19:20;4.50;99.90
33761;DHT22;20084;47.912;19.044;2022-12-22T14:22:03;4.50;99.90
33761;DHT22;20084;47.912;19.044;2022-12-22T14:24:33;4.50;99.90
33761;DHT22;20084;47.912;19.044;2022-12-22T14:27:00;4.50;99.90
33761;DHT22;20084;47.912;19.044;2022-12-22T14:29:27;4.50;99.90
33761;DHT22;20084;47.912;19.044;2022-12-22T14:31:59;4.50;99.90
33761;DHT22;20084;47.912;19.044;2022-12-22T14:34:33;4.40;99.90
33761;DHT22;20084;47.912;19.044;2022-12-22T14:37:00;4.40;99.90
33761;DHT22;20084;47.912;19.044;2022-12-22T14:39:31;4.40;99.90
33761;DHT22;20084;47.912;19.044;2022-12-22T14:42:04;4.40;99.90
33761;DHT22;20084;47.912;19.044;2022-12-22T14:44:34;4.50;99.90
33761;DHT22;20084;47.912;19.044;2022-12-22T14:50:03;4.50;99.90
33761;DHT22;20084;47.912;19.044;2022-12-22T14:52:49;4.50;99.90
33761;DHT22;20084;47.912;19.044;2022-12-22T14:55:28;4.50;99.90
33761;DHT22;20084;47.912;19.044;2022-12-22T15:00:37;4.50;99.90
33761;DHT22;20084;47.912;19.044;2022-12-22T15:03:23;4.40;99.90
33761;DHT22;20084;47.912;19.044;2022-12-22T15:05:50;4.40;99.90
33761;DHT22;20084;47.912;19.044;2022-12-22T15:08:39;4.40;99.90
33761;DHT22;20084;47.912;19.044;2022-12-22T15:11:15;4.40;99.90
33761;DHT22;20084;47.912;19.044;2022-12-22T15:13:42;4.40;99.90
33761;DHT22;20084;47.912;19.044;2022-12-22T15:16:13;4.50;99.90
33761;DHT22;20084;47.912;19.044;2022-12-22T15:18:40;4.50;99.90
33761;DHT22;20084;47.912;19.044;2022-12-22T15:21:10;4.50;99.90
33761;DHT22;20084;47.912;19.044;2022-12-22T15:23:36;4.50;99.90
33761;DHT22;20084;47.912;19.044;2022-12-22T15:26:02;4.50;99.90
33761;DHT22;20084;47.912;19.044;2022-12-22T15:28:28;4.50;99.90
33761;DHT22;20084;47.912;19.044;2022-12-22T15:30:53;4.60;99.90
33761;DHT22;20084;47.912;19.044;2022-12-22T15:33:19;4.50;99.90
33761;DHT22;20084;47.912;19.044;2022-12-22T15:35:45;4.60;99.90
33761;DHT22;20084;47.912;19.044;2022-12-22T15:38:19;4.60;99.90
33761;DHT22;20084;47.912;19.044;2022-12-22T15:40:45;4.50;99.90
33761;DHT22;20084;47.912;19.044;2022-12-22T15:43:12;4.50;99.90
33761;DHT22;20084;47.912;19.044;2022-12-22T15:45:39;4.50;99.90
33761;DHT22;20084;47.912;19.044;2022-12-22T15:48:08;4.50;99.90
33761;DHT22;20084;47.912;19.044;2022-12-22T15:50:38;4.50;99.90
33761;DHT22;20084;47.912;19.044;2022-12-22T15:53:06;4.50;99.90
33761;DHT22;20084;47.912;19.044;2022-12-22T15:55:38;4.50;99.90
33761;DHT22;20084;47.912;19.044;2022-12-22T15:58:05;4.50;99.90
33761;DHT22;20084;47.912;19.044;2022-12-22T16:00:31;4.70;99.90
33761;DHT22;20084;47.912;19.044;2022-12-22T16:02:56;4.80;99.90
33761;DHT22;20084;47.912;19.044;2022-12-22T16:05:22;4.80;99.90
33761;DHT22;20084;47.912;19.044;2022-12-22T16:07:48;4.80;99.90
33761;DHT22;20084;47.912;19.044;2022-12-22T16:10:23;4.90;99.90
33761;DHT22;20084;47.912;19.044;2022-12-22T16:12:49;4.80;99.90
33761;DHT22;20084;47.912;19.044;2022-12-22T16:15:42;4.90;99.90
33761;DHT22;20084;47.912;19.044;2022-12-22T16:18:10;5.00;99.90
33761;DHT22;20084;47.912;19.044;2022-12-22T16:20:39;5.00;99.90
33761;DHT22;20084;47.912;19.044;2022-12-22T16:23:09;5.00;99.90
33761;DHT22;20084;47.912;19.044;2022-12-22T16:25:37;5.10;99.90
33761;DHT22;20084;47.912;19.044;2022-12-22T16:28:04;5.10;99.90
33761;DHT22;20084;47.912;19.044;2022-12-22T16:30:33;5.10;99.90
33761;DHT22;20084;47.912;19.044;2022-12-22T16:32:59;5.10;99.90
33761;DHT22;20084;47.912;19.044;2022-12-22T16:35:27;5.10;99.90
33761;DHT22;20084;47.912;19.044;2022-12-22T16:37:57;5.10;99.90
33761;DHT22;20084;47.912;19.044;2022-12-22T16:40:25;5.10;99.90
33761;DHT22;20084;47.912;19.044;2022-12-22T16:45:26;4.90;99.90
33761;DHT22;20084;47.912;19.044;2022-12-22T16:47:52;4.90;99.90
33761;DHT22;20084;47.912;19.044;2022-12-22T16:50:23;4.90;99.90
33761;DHT22;20084;47.912;19.044;2022-12-22T16:52:57;5.00;99.90
33761;DHT22;20084;47.912;19.044;2022-12-22T16:55:23;5.10;99.90
33761;DHT22;20084;47.912;19.044;2022-12-22T16:57:48;5.10;99.90
33761;DHT22;20084;47.912;19.044;2022-12-22T17:00:34;5.20;99.90
33761;DHT22;20084;47.912;19.044;2022-12-22T17:05:45;5.20;99.90
33761;DHT22;20084;47.912;19.044;2022-12-22T17:08:24;5.20;99.90
33761;DHT22;20084;47.912;19.044;2022-12-22T17:10:51;5.20;99.90
33761;DHT22;20084;47.912;19.044;2022-12-22T17:13:18;5.00;99.90
33761;DHT22;20084;47.912;19.044;2022-12-22T17:15:44;5.00;99.90
33761;DHT22;20084;47.912;19.044;2022-12-22T17:18:15;4.90;99.90
33761;DHT22;20084;47.912;19.044;2022-12-22T17:20:42;4.90;99.90
33761;DHT22;20084;47.912;19.044;2022-12-22T17:23:31;4.90;99.90
33761;DHT22;20084;47.912;19.044;2022-12-22T17:25:59;4.90;99.90
33761;DHT22;20084;47.912;19.044;2022-12-22T17:28:27;4.80;99.90
33761;DHT22;20084;47.912;19.044;2022-12-22T17:30:52;4.90;99.90
33761;DHT22;20084;47.912;19.044;2022-12-22T17:33:18;5.00;99.90
33761;DHT22;20084;47.912;19.044;2022-12-22T17:35:44;5.00;99.90
33761;DHT22;20084;47.912;19.044;2022-12-22T17:38:15;5.10;99.90
33761;DHT22;20084;47.912;19.044;2022-12-22T17:40:42;5.00;99.90
33761;DHT22;20084;47.912;19.044;2022-12-22T17:43:13;5.00;99.90
33761;DHT22;20084;47.912;19.044;2022-12-22T17:45:39;5.00;99.90
33761;DHT22;20084;47.912;19.044;2022-12-22T17:48:06;4.90;99.90
33761;DHT22;20084;47.912;19.044;2022-12-22T17:50:32;5.00;99.90
33761;DHT22;20084;47.912;19.044;2022-12-22T17:52:59;5.10;99.90
33761;DHT22;20084;47.912;19.044;2022-12-22T17:55:26;5.10;99.90
33761;DHT22;20084;47.912;19.044;2022-12-22T17:57:52;5.20;99.90
33761;DHT22;20084;47.912;19.044;2022-12-22T18:00:29;5.10;99.90
33761;DHT22;20084;47.912;19.044;2022-12-22T18:02:56;5.00;99.90
33761;DHT22;20084;47.912;19.044;2022-12-22T18:05:24;5.00;99.90
33761;DHT22;20084;47.912;19.044;2022-12-22T18:07:55;5.00;99.90
33761;DHT22;20084;47.912;19.044;2022-12-22T18:10:29;4.90;99.90
33761;DHT22;20084;47.912;19.044;2022-12-22T18:12:56;4.90;99.90
33761;DHT22;20084;47.912;19.044;2022-12-22T18:15:24;4.90;99.90
33761;DHT22;20084;47.912;19.044;2022-12-22T18:17:50;4.90;99.90
33761;DHT22;20084;47.912;19.044;2022-12-22T18:20:21;4.80;99.90
33761;DHT22;20084;47.912;19.044;2022-12-22T18:22:54;4.90;99.90
33761;DHT22;20084;47.912;19.044;2022-12-22T18:25:24;4.90;99.90
33761;DHT22;20084;47.912;19.044;2022-12-22T18:27:50;4.90;99.90